METAR AND TAF INFORMATION

METAR FOR LEST
ADDS - METARS form results

(0135 UTC 05 December 2022)
Data provider http://aviationweather.gov/metar/data/
 
METAR text: LEST 050130Z 12005KT 090V150 CAVOK 07/05 Q1009 NOSIG
Conditions at: LEST (SANTIAGO/LABACOL, ES) observed 0130 UTC 05 December 2022
Temperature: 7.0°C (45°F)
Dewpoint: 5.0°C (41°F) [RH = 87%]
Pressure (altimeter): 29.79 inches Hg (1009.0 mb)
Winds: from the ESE (120 degrees) at 6 MPH (5 knots; 2.6 m/s)
Visibility: 6 or more miles (10+ km)
Ceiling: ceiling and visibility are OK
Clouds: unknown
Weather: no significant weather observed at this time

METAR text: LEST 050100Z 13007KT 100V160 9999 FEW032 BKN049 07/05 Q1009 NOSIG
Conditions at: LEST (SANTIAGO/LABACOL, ES) observed 0100 UTC 05 December 2022
Temperature: 7.0°C (45°F)
Dewpoint: 5.0°C (41°F) [RH = 87%]
Pressure (altimeter): 29.79 inches Hg (1009.0 mb)
Winds: from the SE (130 degrees) at 8 MPH (7 knots; 3.6 m/s)
Visibility: 6 or more miles (10+ km)
Ceiling: 4900 feet AGL
Clouds: few clouds at 3200 feet AGL
broken clouds at 4900 feet AGL
Weather: no significant weather observed at this time

Forecast for: LEST (SANTIAGO/LABACOL, ES)
Text: TAF LEST 042300Z 0500/0524 10008KT 9999 SCT020 TX13/0514Z TN04/0508Z
Forecast period: 0000 UTC 05 December 2022 to 0000 UTC 06 December 2022
Forecast type: FROM: standard forecast or significant change
Winds: from the E (100 degrees) at 9 MPH (8 knots; 4.1 m/s)
Visibility: 6 or more miles (10+ km)
Ceiling: at least 12,000 feet AGL
Clouds: scattered clouds at 2000 feet AGL
Weather: no significant weather forecast for this period

 

AIRPORT MAP

 

RUNWAY INFORMATION

Runway 17 Runway length 10499 ft Runway width 148 ft
Runway elevation 1170 ft Runway displaced threshold 394 ft Runway heading 166
Runway 35 Runway length 10499 ft Runway width 148 ft
Runway elevation 1196 ft Runway displaced threshold 0 ft Runway heading 346

 

AIRPORT FREQUENCIES

Type APP Name APP Frequency 118.2 MHZ
Type GND Name GND Frequency 121.7 MHZ
Type TWR Name TWR Frequency 118.75 MHZ

 

AIRPORT NEAR NAVIGATION AIDS

Type NDB Name Santiago Frequency 417 KHZ
Type VOR-DME Name Santiago Frequency 116400 KHZ